createdAt,value
2022-08-05T00:01:27.868Z,9.55
2022-08-05T00:06:36.100Z,9.73
2022-08-05T00:11:48.645Z,12.52
2022-08-05T00:17:01.925Z,10.10
2022-08-05T00:22:05.369Z,10.32
2022-08-05T00:27:10.566Z,9.70
2022-08-05T00:32:20.897Z,8.77
2022-08-05T00:37:35.604Z,10.05
2022-08-05T00:42:52.103Z,10.45
2022-08-05T00:48:05.566Z,10.50
2022-08-05T00:54:00.110Z,10.97
2022-08-05T00:58:32.799Z,13.07
2022-08-05T01:03:37.795Z,12.55
2022-08-05T01:13:59.604Z,17.05
2022-08-05T01:19:18.857Z,13.80
2022-08-05T01:24:46.655Z,15.13
2022-08-05T01:29:56.124Z,18.80
2022-08-05T01:35:04.214Z,15.45
2022-08-05T01:40:18.022Z,13.65
2022-08-05T01:45:24.271Z,12.55
2022-08-05T01:50:32.502Z,10.32
2022-08-05T01:55:37.307Z,9.25
2022-08-05T02:00:44.190Z,9.98
2022-08-05T02:05:49.000Z,7.13
2022-08-05T02:11:02.367Z,6.47
2022-08-05T02:16:16.411Z,8.18
2022-08-05T02:21:25.040Z,8.27
2022-08-05T02:26:36.104Z,6.55
2022-08-05T02:31:41.486Z,10.18
2022-08-05T02:36:50.667Z,8.93
2022-08-05T02:42:00.673Z,8.38
2022-08-05T02:47:08.875Z,7.75
2022-08-05T02:52:30.114Z,8.02
2022-08-05T02:58:09.460Z,7.28
2022-08-05T03:03:00.515Z,11.13
2022-08-05T03:08:08.702Z,8.50
2022-08-05T03:13:16.769Z,7.05
2022-08-05T03:18:24.729Z,8.13
2022-08-05T03:23:33.987Z,7.78
2022-08-05T03:28:38.525Z,7.78
2022-08-05T03:33:53.038Z,8.07
2022-08-05T03:38:56.487Z,9.15
2022-08-05T03:44:10.268Z,8.25
2022-08-05T03:49:16.407Z,6.40
2022-08-05T03:55:50.145Z,7.63
2022-08-05T03:59:55.850Z,7.45
2022-08-05T04:05:01.291Z,6.45
2022-08-05T04:10:05.268Z,7.55
2022-08-05T04:15:10.401Z,6.75
2022-08-05T04:20:22.139Z,11.48
2022-08-05T04:25:56.966Z,7.95
2022-08-05T04:30:49.585Z,7.72
2022-08-05T04:36:16.537Z,10.07
2022-08-05T04:41:17.410Z,6.00
2022-08-05T04:46:27.828Z,9.65
2022-08-05T04:51:32.973Z,7.80
2022-08-05T04:56:37.919Z,6.25
2022-08-05T05:02:06.686Z,9.45
2022-08-05T05:07:09.490Z,8.23
2022-08-05T05:12:12.789Z,7.35
2022-08-05T05:17:18.781Z,8.43
2022-08-05T05:22:27.439Z,8.48
2022-08-05T05:27:45.950Z,9.10
2022-08-05T05:32:51.842Z,8.00
2022-08-05T05:38:02.203Z,7.55
2022-08-05T05:43:05.576Z,7.97
2022-08-05T05:48:11.607Z,9.77
2022-08-05T05:53:22.223Z,7.72
2022-08-05T05:58:31.598Z,7.00
2022-08-05T06:03:53.933Z,7.13
2022-08-05T06:14:03.845Z,11.45
2022-08-05T06:19:08.075Z,6.57
2022-08-05T06:24:12.868Z,5.68
2022-08-05T06:29:24.946Z,5.50
2022-08-05T06:34:41.055Z,8.05
2022-08-05T06:39:45.988Z,6.70
2022-08-05T06:44:49.395Z,8.45
2022-08-05T06:50:00.177Z,8.55
2022-08-05T06:55:07.639Z,9.90
2022-08-05T07:00:11.780Z,10.43
2022-08-05T07:05:18.869Z,10.45
2022-08-05T07:10:32.277Z,6.93
2022-08-05T07:16:00.796Z,8.23
2022-08-05T07:21:06.378Z,6.60
2022-08-05T07:26:13.389Z,7.13
2022-08-05T07:31:17.683Z,6.82
2022-08-05T07:36:21.722Z,10.43
2022-08-05T07:42:07.826Z,8.70
2022-08-05T07:46:50.258Z,7.13
2022-08-05T07:51:55.066Z,6.53
2022-08-05T07:57:13.830Z,6.68
2022-08-05T08:07:39.433Z,6.78
2022-08-05T08:12:58.832Z,6.53
2022-08-05T08:18:03.526Z,10.55
2022-08-05T08:24:00.011Z,6.28
2022-08-05T08:28:36.223Z,9.57
2022-08-05T08:33:40.342Z,8.63
2022-08-05T08:38:44.143Z,10.02
2022-08-05T08:45:23.884Z,7.68
2022-08-05T08:50:23.391Z,8.80
2022-08-05T08:54:48.035Z,8.18
2022-08-05T08:59:53.058Z,6.75
2022-08-05T09:05:17.687Z,6.53
2022-08-05T09:10:22.254Z,8.10
2022-08-05T09:15:32.665Z,10.07
2022-08-05T09:20:43.544Z,6.90
2022-08-05T09:26:02.842Z,7.82
2022-08-05T09:31:22.320Z,7.30
2022-08-05T09:36:45.858Z,5.22
2022-08-05T09:42:01.558Z,12.07
2022-08-05T09:47:15.356Z,5.65
2022-08-05T09:52:25.666Z,8.50
2022-08-05T09:57:35.395Z,6.60
2022-08-05T10:02:45.819Z,6.35
2022-08-05T10:08:35.030Z,8.18
2022-08-05T10:13:31.543Z,8.15
2022-08-05T10:18:48.400Z,9.75
2022-08-05T10:23:59.375Z,8.27
2022-08-05T10:29:03.485Z,8.55
2022-08-05T10:34:08.688Z,7.70
2022-08-05T10:39:24.205Z,10.45
2022-08-05T10:44:31.297Z,6.38
2022-08-05T10:49:49.081Z,7.28
2022-08-05T10:55:04.435Z,8.40
2022-08-05T11:00:19.331Z,6.25
2022-08-05T11:05:28.982Z,5.68
2022-08-05T11:10:33.385Z,6.22
2022-08-05T11:16:00.068Z,6.45
2022-08-05T11:21:31.490Z,6.72
2022-08-05T11:27:25.866Z,4.90
2022-08-05T11:32:30.438Z,5.57
2022-08-05T11:38:30.852Z,5.82
2022-08-05T11:44:00.728Z,6.93
2022-08-05T11:48:46.391Z,5.20
2022-08-05T11:53:51.775Z,7.43
2022-08-05T11:58:59.257Z,7.88
2022-08-05T12:04:02.872Z,5.97
2022-08-05T12:09:08.116Z,7.55
2022-08-05T12:14:24.761Z,4.38
2022-08-05T12:20:16.801Z,4.45
2022-08-05T12:24:52.999Z,4.13
2022-08-05T12:30:03.378Z,6.10
2022-08-05T12:35:08.600Z,5.57
2022-08-05T12:40:26.289Z,4.10
2022-08-05T12:45:42.456Z,3.63
2022-08-05T12:51:21.603Z,3.70
2022-08-05T12:56:40.789Z,3.45
2022-08-05T13:02:07.806Z,4.38
2022-08-05T13:07:16.231Z,3.90
2022-08-05T13:12:57.248Z,5.75
2022-08-05T13:18:01.057Z,6.22
2022-08-05T13:23:07.114Z,6.00
2022-08-05T13:28:12.889Z,5.20
2022-08-05T13:34:21.985Z,4.72
2022-08-05T13:38:42.226Z,7.43
2022-08-05T13:43:55.020Z,5.68
2022-08-05T13:49:00.951Z,6.65
2022-08-05T13:54:12.579Z,6.72
2022-08-05T13:59:19.701Z,8.15
2022-08-05T14:04:42.569Z,4.30
2022-08-05T14:09:53.793Z,7.20
2022-08-05T14:14:58.433Z,5.40
2022-08-05T14:20:06.790Z,10.38
2022-08-05T14:25:21.849Z,6.38
2022-08-05T14:30:28.001Z,8.38
2022-08-05T14:35:37.551Z,6.68
2022-08-05T14:40:54.204Z,7.22
2022-08-05T14:45:58.894Z,6.80
2022-08-05T14:51:01.959Z,5.55
2022-08-05T14:56:06.690Z,6.32
2022-08-05T15:01:16.057Z,7.75
2022-08-05T15:06:20.251Z,7.57
2022-08-05T15:11:51.208Z,5.65
2022-08-05T15:16:56.804Z,8.18
2022-08-05T15:22:01.275Z,6.20
2022-08-05T15:27:04.793Z,6.05
2022-08-05T15:32:13.573Z,5.28
2022-08-05T15:38:08.355Z,5.95
2022-08-05T15:42:55.890Z,7.22
2022-08-05T15:48:04.018Z,6.15
2022-08-05T15:53:09.230Z,6.45
2022-08-05T15:58:16.460Z,6.22
2022-08-05T16:03:21.415Z,4.95
2022-08-05T16:08:24.544Z,5.68
2022-08-05T16:13:34.876Z,10.70
2022-08-05T16:18:52.523Z,10.43
2022-08-05T16:24:00.275Z,9.63
2022-08-05T16:29:06.145Z,7.03
2022-08-05T16:34:12.783Z,7.88
2022-08-05T16:39:20.609Z,5.97
2022-08-05T16:44:25.673Z,5.35
2022-08-05T16:49:30.900Z,4.28
2022-08-05T16:54:34.113Z,5.95
2022-08-05T17:00:04.401Z,4.53
2022-08-05T17:05:01.770Z,3.15
2022-08-05T17:10:05.443Z,2.13
2022-08-05T17:15:09.437Z,2.38
2022-08-05T17:20:14.887Z,2.38
2022-08-05T17:25:34.074Z,2.55
2022-08-05T17:30:52.130Z,1.88
2022-08-05T17:36:07.423Z,6.28
2022-08-05T17:42:16.555Z,5.32
2022-08-05T17:46:36.582Z,2.40
2022-08-05T17:51:40.926Z,4.30
2022-08-05T17:56:44.717Z,5.10
2022-08-05T18:01:51.983Z,4.25
2022-08-05T18:06:56.390Z,7.93
2022-08-05T18:12:04.895Z,7.13
2022-08-05T18:17:08.380Z,5.70
2022-08-05T18:22:45.986Z,2.28
2022-08-05T18:27:55.839Z,2.67
2022-08-05T18:33:00.984Z,3.80
2022-08-05T18:38:05.800Z,5.20
2022-08-05T18:43:16.300Z,3.47
2022-08-05T18:48:30.621Z,2.25
2022-08-05T18:53:45.800Z,3.28
2022-08-05T18:58:54.969Z,3.33
2022-08-05T19:04:05.504Z,6.85
2022-08-05T19:09:10.028Z,2.88
2022-08-05T19:14:44.944Z,3.93
2022-08-05T19:19:36.294Z,3.50
2022-08-05T19:24:56.015Z,2.25
2022-08-05T19:29:59.309Z,3.33
2022-08-05T19:35:05.915Z,3.80
2022-08-05T19:40:11.917Z,3.17
2022-08-05T19:50:18.125Z,3.70
2022-08-05T19:56:15.521Z,7.00
2022-08-05T20:00:46.383Z,5.13
2022-08-05T20:05:51.098Z,3.45
2022-08-05T20:10:56.837Z,5.10
2022-08-05T20:16:00.249Z,3.15
2022-08-05T20:21:07.798Z,3.67
2022-08-05T20:26:15.441Z,3.50
2022-08-05T20:31:28.332Z,6.40
2022-08-05T20:36:43.346Z,3.90
2022-08-05T20:41:48.296Z,5.28
2022-08-05T20:46:51.313Z,4.03
2022-08-05T20:51:57.305Z,3.70
2022-08-05T20:57:03.475Z,5.07
2022-08-05T21:02:06.596Z,5.55
2022-08-05T21:07:10.003Z,4.28
2022-08-05T21:12:19.358Z,5.55
2022-08-05T21:17:22.574Z,9.18
2022-08-05T21:22:25.860Z,9.25
2022-08-05T21:27:38.942Z,8.35
2022-08-05T21:32:42.295Z,9.18
2022-08-05T21:37:47.106Z,5.47
2022-08-05T21:42:53.471Z,4.57
2022-08-05T21:47:58.002Z,4.07
2022-08-05T21:53:04.594Z,7.25
2022-08-05T21:58:12.970Z,5.13
2022-08-05T22:03:16.030Z,5.40
2022-08-05T22:08:24.237Z,4.53
2022-08-05T22:14:19.826Z,7.97
2022-08-05T22:18:54.648Z,6.60
2022-08-05T22:24:39.611Z,5.47
2022-08-05T22:29:45.912Z,5.70
2022-08-05T22:34:50.637Z,7.18
2022-08-05T22:39:55.057Z,9.07
2022-08-05T22:44:59.535Z,6.72
2022-08-05T22:50:19.259Z,5.90
2022-08-05T22:55:26.113Z,9.13
2022-08-05T23:00:31.323Z,10.63
2022-08-05T23:05:36.130Z,7.72
2022-08-05T23:10:40.719Z,3.63
2022-08-05T23:15:45.234Z,7.97
2022-08-05T23:20:53.527Z,3.97
2022-08-05T23:25:56.756Z,3.38
2022-08-05T23:31:16.084Z,3.42
2022-08-05T23:36:19.931Z,2.60
2022-08-05T23:41:22.987Z,3.70
2022-08-05T23:46:28.796Z,3.28
2022-08-05T23:51:54.808Z,4.28
2022-08-05T23:57:04.062Z,3.53
